createdAt,value
2022-07-25T00:02:15.066Z,99.90
2022-07-25T00:07:22.099Z,99.90
2022-07-25T00:12:27.623Z,99.90
2022-07-25T00:17:32.665Z,99.90
2022-07-25T00:22:38.736Z,99.90
2022-07-25T00:27:44.569Z,99.90
2022-07-25T00:32:50.001Z,99.90
2022-07-25T00:37:55.317Z,99.90
2022-07-25T00:43:01.277Z,99.90
2022-07-25T00:48:07.613Z,99.90
2022-07-25T00:53:13.480Z,99.90
2022-07-25T00:58:20.717Z,99.90
2022-07-25T01:03:26.613Z,99.90
2022-07-25T01:08:32.934Z,99.90
2022-07-25T01:13:39.271Z,99.90
2022-07-25T01:18:45.758Z,99.90
2022-07-25T01:23:51.738Z,99.90
2022-07-25T01:28:56.913Z,99.90
2022-07-25T01:34:02.902Z,99.90
2022-07-25T01:39:08.829Z,99.90
2022-07-25T01:44:14.870Z,99.90
2022-07-25T01:49:20.625Z,99.90
2022-07-25T01:54:25.919Z,99.90
2022-07-25T01:59:31.431Z,99.90
2022-07-25T02:04:38.026Z,99.90
2022-07-25T02:09:43.923Z,99.90
2022-07-25T02:14:49.791Z,99.90
2022-07-25T02:19:55.377Z,99.90
2022-07-25T02:25:01.220Z,99.90
2022-07-25T02:30:08.603Z,99.90
2022-07-25T02:35:14.044Z,99.90
2022-07-25T02:40:19.388Z,99.90
2022-07-25T02:45:24.790Z,99.90
2022-07-25T02:50:29.927Z,99.90
2022-07-25T02:55:35.690Z,99.90
2022-07-25T03:00:45.736Z,99.90
2022-07-25T03:05:51.804Z,99.90
2022-07-25T03:10:57.652Z,99.90
2022-07-25T03:16:03.428Z,99.90
2022-07-25T03:21:10.044Z,99.90
2022-07-25T03:26:15.540Z,99.90
2022-07-25T03:31:21.232Z,99.90
2022-07-25T03:36:26.615Z,99.90
2022-07-25T03:41:57.579Z,99.90
2022-07-25T03:47:03.333Z,99.90
2022-07-25T03:52:09.053Z,99.90
2022-07-25T03:57:14.919Z,99.90
2022-07-25T04:02:20.872Z,99.90
2022-07-25T04:07:26.668Z,99.90
2022-07-25T04:12:32.396Z,99.90
2022-07-25T04:17:39.690Z,99.90
2022-07-25T04:22:47.062Z,99.90
2022-07-25T04:27:53.057Z,99.90
2022-07-25T04:32:58.938Z,99.90
2022-07-25T04:38:07.571Z,99.90
2022-07-25T04:43:16.518Z,99.90
2022-07-25T04:48:22.417Z,99.90
2022-07-25T04:53:28.076Z,99.90
2022-07-25T04:58:34.973Z,99.90
2022-07-25T05:03:40.783Z,99.90
2022-07-25T05:08:56.028Z,99.90
2022-07-25T05:14:01.439Z,99.90
2022-07-25T05:19:07.305Z,99.90
2022-07-25T05:24:13.052Z,99.90
2022-07-25T05:29:19.085Z,99.90
2022-07-25T05:34:25.041Z,99.90
2022-07-25T05:39:30.745Z,99.90
2022-07-25T05:44:36.851Z,99.90
2022-07-25T05:49:42.172Z,99.90
2022-07-25T05:54:48.343Z,99.90
2022-07-25T05:59:54.560Z,99.90
2022-07-25T06:05:01.024Z,99.90
2022-07-25T06:10:07.586Z,99.90
2022-07-25T06:15:22.518Z,99.90
2022-07-25T06:20:31.782Z,99.90
2022-07-25T06:25:38.083Z,99.90
2022-07-25T06:30:45.561Z,98.40
2022-07-25T06:35:51.407Z,92.60
2022-07-25T06:40:57.548Z,80.20
2022-07-25T06:46:02.988Z,78.70
2022-07-25T06:51:10.032Z,82.90
2022-07-25T06:56:17.722Z,77.10
2022-07-25T07:01:23.774Z,73.20
2022-07-25T07:06:29.972Z,65.90
2022-07-25T07:11:36.252Z,71.90
2022-07-25T07:16:43.226Z,74.60
2022-07-25T07:21:49.367Z,71.20
2022-07-25T07:26:56.995Z,59.10
2022-07-25T07:32:03.389Z,52.90
2022-07-25T07:37:09.413Z,53.20
2022-07-25T07:42:15.326Z,50.60
2022-07-25T07:47:23.678Z,49.70
2022-07-25T07:52:29.505Z,48.70
2022-07-25T07:57:34.805Z,53.00
2022-07-25T08:02:52.708Z,51.40
2022-07-25T08:07:59.737Z,45.60
2022-07-25T08:13:17.600Z,43.10
2022-07-25T08:18:24.001Z,41.60
2022-07-25T08:23:29.704Z,34.00
2022-07-25T08:28:35.764Z,33.10
2022-07-25T08:33:41.578Z,29.10
2022-07-25T08:38:47.613Z,22.70
2022-07-25T08:43:54.594Z,20.50
2022-07-25T08:49:01.255Z,16.50
2022-07-25T08:54:08.575Z,14.60
2022-07-25T08:59:14.566Z,14.40
2022-07-25T09:04:21.997Z,16.00
2022-07-25T09:09:39.053Z,17.80
2022-07-25T09:14:47.526Z,20.80
2022-07-25T09:19:59.362Z,22.70
2022-07-25T09:25:05.245Z,22.30
2022-07-25T09:30:17.639Z,24.30
2022-07-25T09:35:37.721Z,25.80
2022-07-25T09:40:44.241Z,27.80
2022-07-25T09:45:54.573Z,28.40
2022-07-25T09:51:00.612Z,27.20
2022-07-25T09:56:07.083Z,29.50
2022-07-25T10:01:16.118Z,29.80
2022-07-25T10:06:40.910Z,30.70
2022-07-25T10:12:09.284Z,31.60
2022-07-25T10:17:23.732Z,33.10
2022-07-25T10:22:59.050Z,33.70
2022-07-25T10:28:11.937Z,36.80
2022-07-25T10:33:23.332Z,40.40
2022-07-25T10:38:31.625Z,40.00
2022-07-25T10:43:44.630Z,43.80
2022-07-25T10:49:02.363Z,44.70
2022-07-25T10:54:20.387Z,44.40
2022-07-25T10:59:35.373Z,46.90
2022-07-25T11:04:41.249Z,47.20
2022-07-25T11:09:47.114Z,49.80
2022-07-25T11:14:52.928Z,51.60
2022-07-25T11:20:00.645Z,52.10
2022-07-25T11:25:15.804Z,53.30
2022-07-25T11:30:22.722Z,58.90
2022-07-25T11:35:34.135Z,61.60
2022-07-25T11:40:46.972Z,63.50
2022-07-25T11:46:00.964Z,65.30
2022-07-25T11:51:20.969Z,66.30
2022-07-25T11:56:42.396Z,69.70
2022-07-25T12:01:49.872Z,73.90
2022-07-25T12:07:09.714Z,77.80
2022-07-25T12:12:15.748Z,92.10
2022-07-25T12:17:21.477Z,82.90
2022-07-25T12:27:34.502Z,71.80
2022-07-25T12:32:40.960Z,88.60
2022-07-25T12:37:47.124Z,91.00
2022-07-25T12:42:53.126Z,91.40
2022-07-25T12:47:59.482Z,91.80
2022-07-25T12:53:05.392Z,92.70
2022-07-25T12:58:11.483Z,93.30
2022-07-25T13:03:17.326Z,94.40
2022-07-25T13:08:22.856Z,94.80
2022-07-25T13:13:29.069Z,95.80
2022-07-25T13:18:34.808Z,97.20
2022-07-25T13:23:41.559Z,98.50
2022-07-25T13:28:47.219Z,99.90
2022-07-25T13:33:53.849Z,99.90
2022-07-25T13:38:59.342Z,99.90
2022-07-25T13:44:05.104Z,99.90
2022-07-25T13:49:11.004Z,99.90
2022-07-25T13:54:17.318Z,99.90
2022-07-25T13:59:23.323Z,99.90
2022-07-25T14:04:29.291Z,99.90
2022-07-25T14:09:36.158Z,99.90
2022-07-25T14:14:42.558Z,99.90
2022-07-25T14:19:48.339Z,99.90
2022-07-25T14:24:54.448Z,99.90
2022-07-25T14:30:00.605Z,99.90
2022-07-25T14:35:08.014Z,99.90
2022-07-25T14:40:15.475Z,99.90
2022-07-25T14:45:21.156Z,99.90
2022-07-25T14:50:27.370Z,99.90
2022-07-25T14:55:33.700Z,99.90
2022-07-25T15:00:43.722Z,99.90
2022-07-25T15:05:49.475Z,99.90
2022-07-25T15:10:55.370Z,99.90
2022-07-25T15:16:01.492Z,99.90
2022-07-25T15:21:07.382Z,99.90
2022-07-25T15:26:13.446Z,99.90
2022-07-25T15:31:19.834Z,99.90
2022-07-25T15:36:29.577Z,99.90
2022-07-25T15:41:35.892Z,99.90
2022-07-25T15:46:47.049Z,99.90
2022-07-25T15:51:53.080Z,99.90
2022-07-25T15:56:59.201Z,99.90
2022-07-25T16:02:10.263Z,99.90
2022-07-25T16:07:15.647Z,99.90
2022-07-25T16:12:28.638Z,99.90
2022-07-25T16:17:35.077Z,99.90
2022-07-25T16:22:41.363Z,99.90
2022-07-25T16:27:46.974Z,99.90
2022-07-25T16:32:52.947Z,99.90
2022-07-25T16:37:58.907Z,99.90
2022-07-25T16:43:04.399Z,99.90
2022-07-25T16:48:09.879Z,99.90
2022-07-25T16:53:15.658Z,99.90
2022-07-25T16:58:21.160Z,99.90
2022-07-25T17:03:26.073Z,99.90
2022-07-25T17:08:33.714Z,99.90
2022-07-25T17:13:39.292Z,99.90
2022-07-25T17:18:44.995Z,99.90
2022-07-25T17:23:54.276Z,99.90
2022-07-25T17:29:01.432Z,99.90
2022-07-25T17:34:07.063Z,99.90
2022-07-25T17:39:12.755Z,99.90
2022-07-25T17:44:18.864Z,99.90
2022-07-25T17:49:25.169Z,99.90
2022-07-25T17:54:30.814Z,99.90
2022-07-25T17:59:37.299Z,99.90
2022-07-25T18:04:43.240Z,99.90
2022-07-25T18:09:48.549Z,99.90
2022-07-25T18:14:53.943Z,99.90
2022-07-25T18:19:59.612Z,99.90
2022-07-25T18:25:05.857Z,99.90
2022-07-25T18:30:12.585Z,99.90
2022-07-25T18:35:18.108Z,99.90
2022-07-25T18:40:23.809Z,99.90
2022-07-25T18:45:30.218Z,99.90
2022-07-25T18:50:36.191Z,99.90
2022-07-25T18:55:41.739Z,99.90
2022-07-25T19:00:47.809Z,99.90
2022-07-25T19:05:58.718Z,99.90
2022-07-25T19:11:07.247Z,99.90
2022-07-25T19:16:13.719Z,99.90
2022-07-25T19:21:20.705Z,99.90
2022-07-25T19:26:26.789Z,99.90
2022-07-25T19:31:32.568Z,99.90
2022-07-25T19:36:38.619Z,99.90
2022-07-25T19:41:46.846Z,99.90
2022-07-25T19:46:52.830Z,99.90
2022-07-25T19:51:58.844Z,99.90
2022-07-25T19:57:05.503Z,99.90
2022-07-25T20:02:11.354Z,99.90
2022-07-25T20:07:16.976Z,99.90
2022-07-25T20:12:22.452Z,99.90
2022-07-25T20:17:28.693Z,99.90
2022-07-25T20:22:39.197Z,99.90
2022-07-25T20:27:44.811Z,99.90
2022-07-25T20:32:50.318Z,99.90
2022-07-25T20:37:55.818Z,99.90
2022-07-25T20:43:02.431Z,99.90
2022-07-25T20:48:08.279Z,99.90
2022-07-25T20:53:14.526Z,99.90
2022-07-25T20:58:20.844Z,99.90
2022-07-25T21:03:26.326Z,99.90
2022-07-25T21:08:31.737Z,99.90
2022-07-25T21:13:37.282Z,99.90
2022-07-25T21:18:43.421Z,99.90
2022-07-25T21:23:49.074Z,99.90
2022-07-25T21:28:55.296Z,99.90
2022-07-25T21:34:00.772Z,99.90
2022-07-25T21:39:07.048Z,99.90
2022-07-25T21:44:12.763Z,99.90
2022-07-25T21:49:41.319Z,99.90
2022-07-25T21:54:48.037Z,99.90
2022-07-25T21:59:54.074Z,99.90
2022-07-25T22:04:59.520Z,99.90
2022-07-25T22:10:05.032Z,99.90
2022-07-25T22:15:12.517Z,99.90
2022-07-25T22:20:18.529Z,99.90
2022-07-25T22:25:24.563Z,99.90
2022-07-25T22:30:30.045Z,99.90
2022-07-25T22:35:35.798Z,99.90
2022-07-25T22:40:41.648Z,99.90
2022-07-25T22:45:47.693Z,99.90
2022-07-25T22:50:53.591Z,99.90
2022-07-25T22:55:59.396Z,99.90
2022-07-25T23:01:04.977Z,99.90
2022-07-25T23:06:10.644Z,99.90
2022-07-25T23:11:16.179Z,99.90
2022-07-25T23:16:22.626Z,99.90
2022-07-25T23:21:28.526Z,99.90
2022-07-25T23:26:34.240Z,99.90
2022-07-25T23:31:40.676Z,99.90
2022-07-25T23:36:46.714Z,99.90
2022-07-25T23:41:53.081Z,99.90
2022-07-25T23:46:59.165Z,99.90
2022-07-25T23:52:05.246Z,99.90
2022-07-25T23:57:11.980Z,99.90
